< Typhoon 201908 2019 Season Typhoon 201910 >
Typhoon 201909 (LEKIMA)
General InformationTrack Information on Google MapsDetailed Wind InformationForecast History on Google MapsAccess Analytics MapList of All Images || NewsDisaster Info.WeblogTrackbackTyphoon FrontTwiphoonTyphoon Now!Typhoon ImaginationJMA Disaster Info. XMLResourceGoogle EarthGE AnimationAtom FeedGeoJSON
Detalied Best Track (Time Zone = UTC)
Year Month Day Hour Lat. Long. Pressure (hPa) Wind (kt) Class Image Chart
2019 8 2 06 14.5 134.3 1002 0 2 Image Chart
2019 8 2 12 14.4 133.8 1002 0 2 Image Chart
2019 8 2 18 14.3 133.3 1000 0 2 Image Chart
2019 8 3 00 14.3 132.8 1000 0 2 Image Chart
2019 8 3 06 14.5 132.3 1000 0 2 Image Chart
2019 8 3 12 15.0 131.9 1000 0 2 Image Chart
2019 8 3 18 15.7 131.5 998 0 2 Image Chart
2019 8 4 00 16.3 131.0 998 0 2 Image Chart
2019 8 4 06 16.9 130.6 994 35 3 Image Chart
2019 8 4 12 17.5 130.2 994 40 3 Image Chart
2019 8 4 18 17.7 130.1 994 40 3 Image Chart
2019 8 5 00 17.9 130.0 994 40 3 Image Chart
2019 8 5 06 18.0 129.9 990 45 3 Image Chart
2019 8 5 12 18.2 129.8 990 45 3 Image Chart
2019 8 5 18 18.5 129.5 985 50 4 Image Chart
2019 8 6 00 18.8 129.3 985 50 4 Image Chart
2019 8 6 06 19.2 129.0 980 55 4 Image Chart
2019 8 6 12 19.5 128.7 975 65 5 Image Chart
2019 8 6 18 19.9 128.4 970 70 5 Image Chart
2019 8 7 00 20.4 128.1 960 75 5 Image Chart
2019 8 7 06 21.0 127.6 950 80 5 Image Chart
2019 8 7 12 21.6 127.0 940 90 5 Image Chart
2019 8 7 18 22.1 126.5 935 95 5 Image Chart
2019 8 7 21 22.4 126.2 935 95 5 Image Chart
2019 8 8 00 22.7 126.0 935 95 5 Image Chart
2019 8 8 03 23.2 125.7 935 95 5 Image Chart
2019 8 8 06 23.6 125.4 930 100 5 Image Chart
2019 8 8 09 24.0 125.2 930 100 5 Image Chart
2019 8 8 12 24.3 125.0 925 105 5 Image Chart
2019 8 8 15 24.9 124.8 925 105 5 Image Chart
2019 8 8 18 25.5 124.5 935 95 5 Image Chart
2019 8 8 21 26.0 124.0 935 95 5 Image Chart
2019 8 9 00 26.4 123.4 940 90 5 Image Chart
2019 8 9 06 27.1 122.5 940 90 5 Image Chart
2019 8 9 12 27.5 122.0 940 90 5 Image Chart
2019 8 9 18 28.2 121.3 950 85 5 Image Chart
2019 8 10 00 29.1 120.7 970 60 4 Image Chart
2019 8 10 06 29.9 120.4 975 50 4 Image Chart
2019 8 10 12 30.8 120.4 980 45 3 Image Chart
2019 8 10 18 32.3 120.3 980 45 3 Image Chart
2019 8 11 00 33.6 120.1 980 45 3 Image Chart
2019 8 11 06 35.0 120.0 980 45 3 Image Chart
2019 8 11 12 35.9 120.0 980 45 3 Image Chart
2019 8 11 18 37.1 120.1 980 40 3 Image Chart
2019 8 12 00 37.8 119.6 985 35 3 Image Chart
2019 8 12 06 37.9 119.5 985 35 3 Image Chart
2019 8 12 12 36.9 119.6 990 35 3 Image Chart
2019 8 12 18 37.0 120.0 992 0 2 Image Chart
2019 8 13 00 37.2 120.0 996 0 2 Image Chart
2019 8 13 06 38.1 120.5 996 0 2 Image Chart
2019 8 13 12 38.6 120.9 998 0 2 Image Chart
2019 8 13 18 38.9 121.1 998 0 2 Image Chart
2019 8 14 00 38.8 121.4 1000 0 6 Image Chart
2019 8 14 06 38.8 121.5 1000 0 6 Image Chart
2019 8 14 12 38.6 121.7 998 0 6 Image Chart
2019 8 14 18 38.4 121.9 996 0 6 Image Chart
Japan Meteorological Agency Best Track Data | Correction Date : 2019-10-03
< Typhoon 201908 2019 Season Typhoon 201910 >

Help